Pagrindinis puslapis
METAR-TAF:

METAR-TAF

Oro uostai :

Phitsanulok, Tailandas

platuma: 16-46-23N, ilguma: 100-16-56E, Aukštis: 47 m

Dabartinis oras

Ataskaita buvo paskelbta 50 minutes, ne 05:00 UTC
Vėjas 6 kt iš Pietryčių, svyruoja nuo Rytų/Šiaurės Rytų ir Pietų/Pietryčių
Temperatūra 28°C
Drėgmė 84%
Slėgis 1008 hPa
Matomumas 10 km arba daugiau
Išsisklaidę debesys ne aukštis 1600 ft
Apsiniaukę ne aukštis 9500 ft

METAR: VTPP 140500Z 13006KT 070V160 9999 SCT016 OVC095 28/25 Q1008 NOSIG

Laikas: 12:50 (05:50 UTC)

Prognozė

Ataskaita buvo paskelbta 50 minutes, ne 05:00 UTC
Prognozė galioja nuo 14 metu 06 UTC su 15 metu 06 UTC
Vėjas 5 kt iš Pietų/Pietryčių
Matomumas 10 km arba daugiau
Su prošvaistėmis ne aukštis 2000 ft
Laikinai
nuo 14 metu 06 UTC su 14 metu 13 UTC
Vėjas 15 kt iš Pietų su gūsio iki 30 kt
Matomumas: 4000 m
Mažai debesys ne aukštis 1500 ft, Liūtiniai kamuoliniai debesys.
Su prošvaistėmis ne aukštis 2000 ft
perkūnija, lietus

TAF: VTPP 140500Z 1406/1506 16005KT 9999 BKN020 TEMPO 1406/1413 17015G30KT 4000 TSRA FEW015CB BKN020

Orai ataskaitas ir orų prognozės (METAR, TAF).

turimą stotys yra geltonos ir raudonos taškus žemėlapyje.

Perkelti pele per norėdami pamatyti stoties vardą.

Tada spustelėkite, norėdami matyti oro stebėjimo ir prognozės.

Norėdami pakeisti žemėlapį: spustelėkite ant žalios mygtukų su juodo kryžiaus žemyn,; žalią mygtuką su brūkšneliu, jei norite nutolinti; arba žalių rodyklių gretimoms žemėlapius.


METAR-TAF: